Time;durP1;ratioP1;P1;durP2;ratioP2;P2;SDS_P1;SDS_P2;PMS_P1;PMS_P2;Temp;Humidity;BMP_temperature;BMP_pressure;BME280_temperature;BME280_humidity;BME280_pressure;Samples;Min_cycle;Max_cycle;Signal;HPM_P1;HPM_P2
2023/10/11 00:00:44;;;;;;;9.73;5.40;;;;;;;16.50;58.04;100293.72;4364856;32;34982;-71
2023/10/11 00:05:44;;;;;;;9.15;5.62;;;;;;;16.58;58.08;100291.19;4363238;32;35461;-71
2023/10/11 00:08:13;;;;;;;13.88;6.78;;;;;;;16.59;57.91;100286.66;4364500;32;33347;-71
2023/10/11 00:10:49;;;;;;;7.10;4.62;;;;;;;16.60;57.90;100282.97;4375007;32;33780;-71
2023/10/11 00:13:16;;;;;;;14.05;6.57;;;;;;;16.59;57.71;100282.09;4375020;32;34258;-71
2023/10/11 00:15:49;;;;;;;11.35;5.85;;;;;;;16.58;57.57;100276.84;4375421;32;33618;-71
2023/10/11 00:18:28;;;;;;;11.73;7.57;;;;;;;16.56;57.47;100279.66;4363195;32;34196;-71
2023/10/11 00:20:59;;;;;;;15.15;7.12;;;;;;;16.49;57.57;100282.06;4367463;32;32244;-73
2023/10/11 00:23:27;;;;;;;15.65;7.43;;;;;;;16.48;57.23;100277.69;4374014;32;34024;-71
2023/10/11 00:26:01;;;;;;;8.63;5.65;;;;;;;16.45;57.21;100275.25;4372974;32;34909;-71
2023/10/11 00:28:32;;;;;;;15.20;7.57;;;;;;;16.41;57.36;100276.53;4374079;32;34201;-71
2023/10/11 00:31:01;;;;;;;9.38;4.75;;;;;;;16.35;57.41;100276.25;4362476;32;34607;-71
2023/10/11 00:33:31;;;;;;;9.18;5.87;;;;;;;16.34;57.33;100274.50;4374468;32;34073;-71
2023/10/11 00:36:06;;;;;;;12.98;6.07;;;;;;;16.29;57.27;100278.50;4374148;32;34435;-71
2023/10/11 00:38:46;;;;;;;12.68;7.93;;;;;;;16.25;57.48;100278.91;4364121;32;33400;-71
2023/10/11 00:43:46;;;;;;;14.77;6.60;;;;;;;16.09;57.81;100281.28;4376515;32;34181;-71
2023/10/11 00:46:18;;;;;;;10.95;4.75;;;;;;;16.05;57.66;100269.88;4371173;32;34739;-71
2023/10/11 00:51:33;;;;;;;9.57;4.60;;;;;;;16.03;57.50;100267.34;4370610;32;33638;-70
2023/10/11 00:54:03;;;;;;;10.80;5.22;;;;;;;15.94;57.81;100275.41;4372604;32;35042;-71
2023/10/11 00:56:31;;;;;;;15.10;5.82;;;;;;;16.02;57.65;100267.47;4373257;32;35165;-71
2023/10/11 00:59:10;;;;;;;11.50;5.90;;;;;;;16.03;57.52;100267.34;4369447;32;33216;-71
2023/10/11 01:01:38;;;;;;;14.25;6.00;;;;;;;16.03;57.57;100261.09;4347134;32;34919;-71
2023/10/11 01:04:16;;;;;;;11.70;6.82;;;;;;;16.03;56.97;100261.94;4349522;32;33919;-70
2023/10/11 01:06:48;;;;;;;8.52;4.68;;;;;;;16.00;57.10;100264.06;4350210;32;33891;-71
2023/10/11 01:09:26;;;;;;;10.73;5.80;;;;;;;15.99;56.98;100255.09;4356572;32;33021;-70
2023/10/11 01:11:54;;;;;;;9.48;5.50;;;;;;;15.99;57.28;100254.25;4358000;32;34007;-70
2023/10/11 01:14:24;;;;;;;19.42;6.07;;;;;;;15.99;57.39;100256.97;4356649;32;33728;-71
2023/10/11 01:16:52;;;;;;;11.45;6.22;;;;;;;15.94;57.59;100257.34;4351546;32;33388;-71
2023/10/11 01:19:20;;;;;;;13.93;5.62;;;;;;;16.02;57.40;100264.78;4350201;32;32961;-71
2023/10/11 01:21:52;;;;;;;10.73;5.00;;;;;;;16.02;57.31;100267.47;4348087;32;33370;-71
2023/10/11 01:24:20;;;;;;;10.32;5.90;;;;;;;15.94;57.15;100270.84;4353363;32;34929;-71
2023/10/11 01:26:49;;;;;;;9.50;5.65;;;;;;;15.93;57.24;100271.00;4346738;32;33618;-70
2023/10/11 01:29:17;;;;;;;10.75;5.62;;;;;;;15.93;57.33;100279.09;4348936;32;34082;-70
2023/10/11 01:31:45;;;;;;;12.80;6.68;;;;;;;15.91;57.43;100272.97;4349754;32;33556;-70
2023/10/11 01:34:14;;;;;;;16.73;7.25;;;;;;;15.88;57.38;100268.69;4366759;32;35239;-71
2023/10/11 01:36:46;;;;;;;9.35;5.80;;;;;;;15.83;57.47;100258.31;4371570;32;33940;-72
2023/10/11 01:39:14;;;;;;;13.23;6.65;;;;;;;15.73;57.86;100265.53;4373972;32;32942;-71
2023/10/11 01:41:42;;;;;;;14.27;5.50;;;;;;;15.75;58.16;100266.22;4371246;32;33493;-72
2023/10/11 01:44:12;;;;;;;14.13;6.10;;;;;;;15.69;58.40;100266.75;4365552;32;35200;-72
2023/10/11 01:46:41;;;;;;;11.90;4.37;;;;;;;15.69;58.21;100260.50;4368896;32;34101;-72
2023/10/11 01:49:10;;;;;;;19.80;5.82;;;;;;;15.72;58.03;100271.88;4371125;32;33631;-72
2023/10/11 01:51:39;;;;;;;9.38;4.47;;;;;;;15.70;58.20;100271.19;4363649;32;33780;-72
2023/10/11 01:54:07;;;;;;;9.95;5.68;;;;;;;15.54;58.52;100277.03;4382520;32;33933;-72
2023/10/11 01:56:35;;;;;;;10.70;4.60;;;;;;;15.48;58.83;100274.87;4371001;32;33426;-71
2023/10/11 01:59:04;;;;;;;9.25;4.78;;;;;;;15.59;58.40;100282.00;4373726;32;34290;-71
2023/10/11 02:01:41;;;;;;;8.25;5.10;;;;;;;15.62;58.31;100270.97;4372336;32;35239;-71
2023/10/11 02:04:17;;;;;;;15.93;8.02;;;;;;;15.64;57.95;100266.28;4367673;32;34690;-71
2023/10/11 02:06:47;;;;;;;8.60;4.18;;;;;;;15.64;57.84;100265.44;4371451;32;33474;-73
2023/10/11 02:09:20;;;;;;;12.57;6.25;;;;;;;15.63;58.06;100261.00;4369216;32;33526;-72
2023/10/11 02:11:52;;;;;;;12.85;5.18;;;;;;;15.70;57.98;100265.78;4371980;32;34659;-71
2023/10/11 02:14:22;;;;;;;8.95;3.65;;;;;;;15.65;58.05;100265.28;4376231;32;34061;-72
2023/10/11 02:16:53;;;;;;;7.82;5.07;;;;;;;15.67;57.93;100260.66;4372474;32;33703;-72
2023/10/11 02:19:24;;;;;;;11.60;4.10;;;;;;;15.69;58.02;100266.75;4373984;32;32902;-72
2023/10/11 02:21:53;;;;;;;8.75;4.70;;;;;;;15.69;58.29;100266.75;4373021;32;33677;-72
2023/10/11 02:24:25;;;;;;;10.80;4.00;;;;;;;15.73;58.21;100267.34;4365285;32;35088;-73
2023/10/11 02:26:54;;;;;;;10.80;5.80;;;;;;;15.77;58.22;100266.94;4370873;32;34015;-72
2023/10/11 02:29:25;;;;;;;10.63;5.35;;;;;;;15.79;58.25;100274.91;4376605;32;33228;-72
2023/10/11 02:31:55;;;;;;;10.43;5.62;;;;;;;15.83;58.25;100273.66;4373070;32;34942;-73
2023/10/11 02:34:23;;;;;;;8.68;7.07;;;;;;;15.91;58.03;100278.38;4377435;32;35159;-72
2023/10/11 02:37:02;;;;;;;16.52;7.40;;;;;;;15.92;57.89;100272.84;4373481;32;33525;-72
2023/10/11 02:39:34;;;;;;;7.95;5.62;;;;;;;15.93;57.65;100266.44;4375592;32;33747;-72
2023/10/11 02:42:05;;;;;;;7.25;3.90;;;;;;;15.93;57.37;100273.69;4355656;32;33754;-72
2023/10/11 02:44:39;;;;;;;16.48;6.50;;;;;;;15.80;57.97;100272.06;4375031;32;35661;-72
2023/10/11 02:47:09;;;;;;;11.10;5.25;;;;;;;15.90;57.46;100272.13;4374329;32;31896;-71
2023/10/11 02:49:37;;;;;;;9.00;4.78;;;;;;;15.87;57.64;100266.12;4376584;32;34108;-73
2023/10/11 02:52:08;;;;;;;11.27;5.03;;;;;;;15.92;57.65;100258.47;4366018;32;33609;-73
2023/10/11 02:54:39;;;;;;;11.60;5.95;;;;;;;15.94;57.25;100256.50;4365836;32;34031;-72
2023/10/11 02:57:09;;;;;;;12.52;5.55;;;;;;;15.92;57.12;100255.78;4372836;32;33724;-73
2023/10/11 02:59:37;;;;;;;10.15;4.95;;;;;;;15.91;57.20;100259.47;4369080;32;34029;-73
2023/10/11 03:02:05;;;;;;;16.67;7.43;;;;;;;15.80;57.52;100255.03;4369372;32;33603;-72
2023/10/11 03:04:39;;;;;;;10.52;6.37;;;;;;;15.68;57.81;100258.81;4367278;32;33889;-74
2023/10/11 03:07:21;;;;;;;12.52;5.82;;;;;;;15.74;57.53;100253.72;4374426;32;33852;-72
2023/10/11 03:09:51;;;;;;;12.27;6.05;;;;;;;15.69;57.52;100253.25;4372489;32;33334;-72
2023/10/11 03:12:19;;;;;;;12.73;7.70;;;;;;;15.70;57.55;100264.94;4367752;32;34747;-72
2023/10/11 03:14:54;;;;;;;15.82;5.40;;;;;;;15.70;57.30;100260.38;4375903;32;35404;-72
2023/10/11 03:17:23;;;;;;;9.00;4.60;;;;;;;15.62;57.50;100257.47;4368603;32;33899;-72
2023/10/11 03:19:53;;;;;;;12.27;5.62;;;;;;;15.41;58.48;100268.31;4373626;32;33255;-71
2023/10/11 03:22:21;;;;;;;11.15;5.32;;;;;;;15.52;58.13;100260.13;4375498;32;35298;-71
2023/10/11 03:24:53;;;;;;;9.90;4.78;;;;;;;15.58;58.07;100264.13;4368531;32;34132;-72
2023/10/11 03:27:23;;;;;;;10.02;5.75;;;;;;;15.60;58.08;100265.72;4355448;32;35602;-71
2023/10/11 03:29:55;;;;;;;17.27;5.75;;;;;;;15.59;58.30;100263.97;4373213;32;33539;-71
2023/10/11 03:32:25;;;;;;;15.55;6.45;;;;;;;15.63;58.38;100261.00;4370805;32;34166;-72
2023/10/11 03:34:55;;;;;;;13.13;6.82;;;;;;;15.65;58.33;100267.13;4374479;32;33909;-71
2023/10/11 03:37:27;;;;;;;13.75;5.07;;;;;;;15.68;58.38;100267.75;4366145;32;34420;-72
2023/10/11 03:39:56;;;;;;;14.35;5.65;;;;;;;15.71;58.62;100275.59;4373149;32;33634;-71
2023/10/11 03:45:10;;;;;;;11.85;6.40;;;;;;;15.78;58.74;100270.50;4373193;32;33795;-72
2023/10/11 03:47:38;;;;;;;10.95;5.45;;;;;;;15.81;58.81;100265.69;4366151;32;33473;-69
2023/10/11 03:50:07;;;;;;;8.43;4.72;;;;;;;15.87;58.85;100267.00;4369772;32;33515;-71
2023/10/11 03:52:40;;;;;;;9.57;5.22;;;;;;;15.94;58.92;100267.28;4370546;32;34018;-70
2023/10/11 03:55:10;;;;;;;10.40;5.60;;;;;;;16.01;58.93;100271.16;4373331;32;34967;-71
2023/10/11 03:57:41;;;;;;;12.37;6.22;;;;;;;16.05;58.68;100264.47;4363884;32;34284;-71
2023/10/11 04:00:46;;;;;;;9.45;5.40;;;;;;;16.10;58.49;100273.03;4365514;32;33240;-70
2023/10/11 04:03:05;;;;;;;13.77;7.40;;;;;;;16.14;58.20;100263.66;4364443;32;35113;-70
2023/10/11 04:05:39;;;;;;;13.25;5.68;;;;;;;16.18;58.13;100261.53;4367937;32;34223;-74
2023/10/11 04:08:12;;;;;;;14.30;7.12;;;;;;;16.20;58.15;100254.16;4372708;32;34119;-70
2023/10/11 04:10:43;;;;;;;11.40;6.62;;;;;;;16.23;58.25;100270.94;4368829;32;33418;-71
2023/10/11 04:13:15;;;;;;;10.48;4.78;;;;;;;16.22;58.48;100281.91;4373113;32;35508;-71
2023/10/11 04:15:43;;;;;;;11.30;6.10;;;;;;;16.30;58.41;100279.34;4369977;32;33858;-70
2023/10/11 04:18:20;;;;;;;13.60;6.65;;;;;;;16.35;58.29;100273.53;4374420;32;34928;-71
2023/10/11 04:20:59;;;;;;;23.30;7.80;;;;;;;16.36;58.29;100259.88;4364089;32;34414;-71
2023/10/11 04:23:27;;;;;;;15.65;7.87;;;;;;;16.37;57.89;100258.03;4369136;32;35251;-70
2023/10/11 04:25:55;;;;;;;16.65;11.52;;;;;;;16.27;58.48;100264.25;4374409;32;33673;-71
2023/10/11 04:28:25;;;;;;;15.93;7.97;;;;;;;16.20;58.63;100267.66;4373083;32;34934;-70
2023/10/11 04:31:27;;;;;;;15.18;8.48;;;;;;;16.33;58.42;100276.38;4366293;32;33105;-71
2023/10/11 04:33:45;;;;;;;16.00;7.30;;;;;;;16.41;58.10;100270.28;4371172;32;34654;-71
2023/10/11 04:36:13;;;;;;;16.58;8.65;;;;;;;16.43;57.78;100279.94;4375047;32;35286;-71
2023/10/11 04:38:47;;;;;;;16.15;7.95;;;;;;;16.39;57.96;100283.06;4371818;32;32635;-72
2023/10/11 04:41:20;;;;;;;15.63;8.40;;;;;;;16.34;58.00;100286.19;4369188;32;33357;-71
2023/10/11 04:43:50;;;;;;;10.60;6.40;;;;;;;16.30;58.23;100273.94;4373999;32;33565;-73
2023/10/11 04:46:27;;;;;;;15.77;6.20;;;;;;;16.29;58.35;100272.25;4367465;32;33666;-74
2023/10/11 04:49:03;;;;;;;10.20;5.55;;;;;;;16.33;58.37;100279.06;4370096;32;33775;-70
2023/10/11 04:51:38;;;;;;;15.27;8.73;;;;;;;16.34;58.54;100282.59;4369017;32;33326;-70
2023/10/11 04:54:13;;;;;;;16.60;7.12;;;;;;;16.36;58.58;100294.16;4374270;32;33464;-70
2023/10/11 04:59:25;;;;;;;10.07;5.12;;;;;;;16.35;58.95;100285.19;4366170;32;33705;-70
2023/10/11 05:04:28;;;;;;;8.75;5.60;;;;;;;16.40;58.74;100285.59;4371791;32;33810;-70
2023/10/11 05:06:56;;;;;;;13.48;7.57;;;;;;;16.39;58.89;100291.16;4376163;32;34012;-68
2023/10/11 05:09:38;;;;;;;16.02;7.78;;;;;;;16.32;59.08;100288.16;4372981;32;33941;-70
2023/10/11 05:14:39;;;;;;;16.00;7.57;;;;;;;16.13;59.75;100304.31;4377486;32;33692;-69
2023/10/11 05:17:31;;;;;;;13.57;7.93;;;;;;;16.20;59.47;100295.50;4372312;32;34935;-69
2023/10/11 05:25:16;;;;;;;13.25;6.28;;;;;;;16.09;59.97;100309.13;4372105;32;33208;-69
2023/10/11 05:27:49;;;;;;;10.63;6.28;;;;;;;16.03;60.36;100310.53;4375737;32;34676;-70
2023/10/11 05:30:28;;;;;;;20.42;8.38;;;;;;;16.18;59.97;100316.44;4365348;32;33715;-69
2023/10/11 05:36:13;;;;;;;14.63;7.20;;;;;;;16.25;60.08;100324.84;4369541;32;33870;-68
2023/10/11 05:52:25;;;;;;;24.42;8.40;;;;;;;16.21;61.56;100320.66;4373810;32;35411;-68
2023/10/11 05:54:54;;;;;;;21.80;11.30;;;;;;;16.19;61.72;100311.87;4374713;32;33365;-68
2023/10/11 05:57:24;;;;;;;20.73;10.10;;;;;;;16.13;61.94;100307.87;4367840;32;33655;-68
2023/10/11 05:59:51;;;;;;;31.08;10.00;;;;;;;15.95;62.73;100310.34;4365273;32;35361;-68
2023/10/11 06:02:19;;;;;;;35.47;10.48;;;;;;;16.07;62.34;100317.34;4371249;32;33843;-68
2023/10/11 06:04:47;;;;;;;16.10;9.55;;;;;;;16.17;62.19;100317.41;4372187;32;33194;-68
2023/10/11 06:07:19;;;;;;;30.40;9.38;;;;;;;16.19;62.22;100323.53;4368337;32;33756;-70
2023/10/11 06:09:52;;;;;;;25.35;11.40;;;;;;;16.16;62.34;100326.50;4371820;32;35224;-71
2023/10/11 06:12:23;;;;;;;25.77;10.23;;;;;;;16.15;62.68;100330.19;4370832;32;33694;-71
2023/10/11 06:14:52;;;;;;;22.98;10.18;;;;;;;16.20;62.69;100333.31;4372109;32;34135;-71
2023/10/11 06:17:32;;;;;;;27.37;14.25;;;;;;;16.22;62.76;100336.75;4365145;32;33631;-71
2023/10/11 06:22:49;;;;;;;22.80;10.10;;;;;;;16.01;63.46;100335.94;4372546;32;34059;-72
2023/10/11 06:25:23;;;;;;;19.25;10.32;;;;;;;16.15;62.98;100334.75;4374662;32;35074;-71
2023/10/11 06:30:27;;;;;;;36.05;12.02;;;;;;;16.17;63.24;100327.34;4366203;32;33076;-72
2023/10/11 06:32:56;;;;;;;32.38;11.70;;;;;;;16.14;63.52;100333.03;4362140;32;34927;-71
2023/10/11 06:35:24;;;;;;;31.80;8.88;;;;;;;16.22;63.38;100339.47;4372608;32;33225;-71
2023/10/11 06:37:52;;;;;;;20.15;9.45;;;;;;;16.25;63.39;100330.22;4369827;32;33733;-71
2023/10/11 06:40:38;;;;;;;24.20;10.23;;;;;;;16.37;63.03;100337.25;4375152;32;34833;-71
2023/10/11 06:43:07;;;;;;;18.40;8.32;;;;;;;16.34;63.21;100337.53;4371530;32;33727;-71
2023/10/11 06:45:35;;;;;;;29.75;12.70;;;;;;;16.24;63.65;100339.31;4374929;32;34065;-71
2023/10/11 06:48:09;;;;;;;29.08;9.82;;;;;;;16.35;63.42;100338.37;4372310;32;33712;-71
2023/10/11 06:50:37;;;;;;;23.87;10.40;;;;;;;16.46;63.34;100340.94;4367106;32;33683;-71
2023/10/11 06:53:07;;;;;;;68.25;31.02;;;;;;;16.46;63.54;100339.09;4375255;32;34325;-70
2023/10/11 06:55:47;;;;;;;68.45;31.45;;;;;;;16.37;63.88;100334.53;4373691;32;34852;-70
2023/10/11 06:58:16;;;;;;;74.10;32.33;;;;;;;16.48;63.75;100339.81;4364282;32;33792;-71
2023/10/11 07:00:46;;;;;;;58.28;23.05;;;;;;;16.25;64.22;100335.63;4358924;32;33920;-70
2023/10/11 07:05:56;;;;;;;70.28;32.17;;;;;;;16.28;64.51;100351.56;4375823;32;33236;-71
2023/10/11 07:08:35;;;;;;;22.90;11.10;;;;;;;16.24;64.52;100345.59;4364276;32;34757;-71
2023/10/11 07:11:10;;;;;;;43.08;16.17;;;;;;;16.50;64.07;100342.37;4372324;32;34207;-71
2023/10/11 07:13:57;;;;;;;30.83;14.18;;;;;;;16.55;64.15;100340.12;4372186;32;34329;-71
2023/10/11 07:16:31;;;;;;;35.45;12.20;;;;;;;16.65;64.02;100343.69;4375716;32;32942;-71
2023/10/11 07:18:59;;;;;;;28.00;11.40;;;;;;;16.62;64.42;100346.66;4376538;32;34080;-71
2023/10/11 07:24:19;;;;;;;30.58;11.65;;;;;;;16.73;64.01;100351.12;4373729;32;33423;-71
2023/10/11 07:26:48;;;;;;;33.65;14.98;;;;;;;16.86;63.93;100351.75;4368585;32;33292;-71
2023/10/11 07:29:20;;;;;;;28.62;12.50;;;;;;;16.97;63.77;100340.78;4371514;32;34660;-71
2023/10/11 07:31:49;;;;;;;37.53;12.90;;;;;;;16.96;64.10;100351.75;4371757;32;33739;-71
2023/10/11 07:34:20;;;;;;;55.83;17.02;;;;;;;16.92;64.21;100351.19;4375880;32;35582;-70
2023/10/11 07:36:48;;;;;;;26.87;13.88;;;;;;;17.05;63.74;100353.62;4373009;32;33590;-70
2023/10/11 07:39:19;;;;;;;30.42;11.30;;;;;;;17.07;63.62;100351.59;4375548;32;34779;-70
2023/10/11 07:41:48;;;;;;;42.55;14.15;;;;;;;17.15;63.48;100345.50;4370953;32;34927;-71
2023/10/11 07:44:18;;;;;;;28.58;9.60;;;;;;;17.22;63.30;100346.63;4372917;32;34056;-71
2023/10/11 07:46:46;;;;;;;32.20;10.15;;;;;;;16.70;65.15;100354.09;4369162;32;34504;-70
2023/10/11 07:49:23;;;;;;;31.92;13.80;;;;;;;17.08;64.05;100355.16;4375582;32;35618;-70
2023/10/11 07:51:58;;;;;;;46.88;14.73;;;;;;;17.23;63.64;100356.44;4373533;32;34262;-70
2023/10/11 07:54:27;;;;;;;29.33;14.35;;;;;;;17.30;63.70;100344.03;4371838;32;33810;-71
2023/10/11 07:57:00;;;;;;;31.27;14.25;;;;;;;17.20;64.10;100346.75;4376913;32;33547;-70
2023/10/11 07:59:28;;;;;;;50.35;18.10;;;;;;;17.24;64.32;100350.06;4371681;32;33784;-70
2023/10/11 08:01:59;;;;;;;38.80;14.75;;;;;;;17.34;64.24;100352.75;4369794;32;35662;-70
2023/10/11 08:04:30;;;;;;;35.75;14.68;;;;;;;17.27;64.53;100348.91;4376998;32;33969;-70
2023/10/11 08:07:03;;;;;;;41.60;22.87;;;;;;;17.54;64.14;100350.88;4380817;32;33596;-70
2023/10/11 08:09:46;;;;;;;64.87;16.30;;;;;;;17.37;64.29;100350.62;4367582;32;34294;-70
2023/10/11 08:12:15;;;;;;;25.83;12.05;;;;;;;17.56;63.52;100355.16;4370174;32;33526;-70
2023/10/11 08:14:46;;;;;;;31.33;11.43;;;;;;;17.51;63.48;100356.59;4369874;32;34064;-70
2023/10/11 08:17:15;;;;;;;36.42;14.27;;;;;;;17.56;63.51;100360.56;4374697;32;34142;-70
2023/10/11 08:19:44;;;;;;;31.30;16.40;;;;;;;17.75;63.40;100356.94;4370717;32;33954;-71
2023/10/11 08:22:16;;;;;;;45.63;15.70;;;;;;;17.91;63.33;100348.25;4372608;32;34321;-70
2023/10/11 08:24:56;;;;;;;41.92;15.75;;;;;;;17.83;63.76;100350.84;4370375;32;33452;-72
2023/10/11 08:27:27;;;;;;;45.33;16.77;;;;;;;18.11;63.46;100354.47;4372424;32;33232;-71
2023/10/11 08:30:09;;;;;;;25.40;9.88;;;;;;;18.14;63.29;100348.75;4372845;32;33606;-72
2023/10/11 08:32:42;;;;;;;22.55;7.78;;;;;;;18.36;62.88;100351.09;4364891;32;34031;-71
2023/10/11 08:35:31;;;;;;;20.42;10.65;;;;;;;18.24;63.91;100349.56;4374772;32;34146;-71
2023/10/11 08:38:06;;;;;;;24.10;12.68;;;;;;;18.23;63.51;100341.56;4373183;32;33231;-74
2023/10/11 08:40:37;;;;;;;22.95;10.55;;;;;;;18.02;63.65;100345.37;4366419;32;32539;-77
2023/10/11 08:43:06;;;;;;;28.17;13.02;;;;;;;18.62;61.19;100336.81;4368538;32;34558;-74
2023/10/11 08:45:47;;;;;;;31.67;13.65;;;;;;;18.57;61.98;100347.25;4373151;32;33509;-75
2023/10/11 08:48:15;;;;;;;27.48;12.35;;;;;;;18.69;61.90;100343.34;4355538;32;33106;-70
2023/10/11 08:50:53;;;;;;;22.25;11.32;;;;;;;18.48;62.31;100337.31;4368779;32;33755;-70
2023/10/11 08:53:24;;;;;;;29.55;13.55;;;;;;;19.07;60.09;100342.22;4365866;32;35039;-70
2023/10/11 08:56:02;;;;;;;26.85;12.23;;;;;;;19.06;60.17;100335.09;4374906;32;34664;-70
2023/10/11 08:58:30;;;;;;;34.38;13.85;;;;;;;19.34;59.50;100332.28;4362470;32;34261;-70
2023/10/11 09:00:59;;;;;;;39.50;15.02;;;;;;;18.83;60.68;100337.41;4366814;32;34002;-71
2023/10/11 09:03:39;;;;;;;28.60;13.32;;;;;;;19.13;59.33;100340.75;4369061;32;33739;-71
2023/10/11 09:06:21;;;;;;;28.67;13.05;;;;;;;19.46;58.64;100330.19;4372796;32;37441;-69
2023/10/11 09:08:51;;;;;;;42.85;16.50;;;;;;;19.45;58.89;100339.31;4373671;32;33425;-72
2023/10/11 09:11:29;;;;;;;35.50;16.37;;;;;;;19.61;58.61;100342.16;4372395;32;35231;-72
2023/10/11 09:14:10;;;;;;;33.92;12.75;;;;;;;19.58;58.85;100337.03;4370929;32;33560;-72
2023/10/11 09:16:37;;;;;;;30.02;13.43;;;;;;;19.46;59.32;100338.34;4362663;32;34714;-72
2023/10/11 09:19:06;;;;;;;29.35;14.35;;;;;;;19.50;58.89;100339.72;4370901;32;33268;-70
2023/10/11 09:21:35;;;;;;;27.08;14.55;;;;;;;19.91;57.91;100342.75;4362913;32;33687;-71
2023/10/11 09:24:22;;;;;;;24.63;11.98;;;;;;;19.85;58.57;100337.97;4370173;32;33953;-71
2023/10/11 09:29:46;;;;;;;24.52;11.57;;;;;;;20.35;56.43;100337.19;4363587;32;33296;-69
2023/10/11 09:32:19;;;;;;;24.87;13.30;;;;;;;19.60;58.46;100345.03;4381545;32;34683;-69
2023/10/11 09:34:47;;;;;;;24.05;11.73;;;;;;;19.90;57.74;100339.19;4369359;32;33277;-70
2023/10/11 09:37:14;;;;;;;24.87;12.77;;;;;;;19.98;57.63;100341.09;4363559;32;34912;-71
2023/10/11 09:39:43;;;;;;;24.37;11.68;;;;;;;19.80;58.88;100343.00;4377977;32;33196;-69
2023/10/11 09:42:13;;;;;;;20.42;10.40;;;;;;;20.02;58.22;100346.03;4330160;33;33927;-71
2023/10/11 09:44:45;;;;;;;26.37;14.87;;;;;;;20.17;57.60;100342.72;4342135;33;34005;-70
2023/10/11 09:47:16;;;;;;;28.05;13.77;;;;;;;19.53;59.25;100339.41;4337214;33;34457;-71
2023/10/11 09:49:47;;;;;;;33.15;13.82;;;;;;;19.39;59.60;100340.81;4324772;33;33292;-70
2023/10/11 09:52:18;;;;;;;27.55;13.15;;;;;;;19.88;58.62;100334.91;4325409;33;33902;-70
2023/10/11 09:54:50;;;;;;;30.33;13.75;;;;;;;19.97;57.86;100339.38;4331012;33;34131;-71
2023/10/11 09:57:34;;;;;;;32.72;13.07;;;;;;;19.68;58.78;100343.28;4318688;33;33717;-71
2023/10/11 10:00:25;;;;;;;27.30;14.75;;;;;;;20.22;57.37;100338.50;4331481;33;33333;-71
2023/10/11 10:02:54;;;;;;;27.73;13.32;;;;;;;20.28;57.26;100336.13;4327759;33;34696;-71
2023/10/11 10:05:23;;;;;;;31.77;11.90;;;;;;;20.30;57.05;100342.28;4329750;33;34860;-71
2023/10/11 10:07:51;;;;;;;21.92;11.95;;;;;;;20.29;57.37;100344.16;4335787;33;33666;-71
2023/10/11 10:10:25;;;;;;;26.17;13.23;;;;;;;20.29;57.54;100341.44;4318285;33;33187;-71
2023/10/11 10:12:58;;;;;;;20.55;9.98;;;;;;;20.12;58.08;100331.47;4340281;32;34838;-70
2023/10/11 10:15:33;;;;;;;19.33;9.20;;;;;;;20.47;57.05;100331.28;4375115;32;33658;-70
2023/10/11 10:18:12;;;;;;;;;;;;;;;20.72;56.54;100325.13;4353412;32;33929;-71
2023/10/11 10:20:41;;;;;;;22.50;11.93;;;;;;;20.33;57.76;100323.75;4367904;32;33372;-71
2023/10/11 10:23:15;;;;;;;17.50;10.05;;;;;;;20.51;56.78;100322.78;4370954;32;33824;-72
2023/10/11 10:25:48;;;;;;;17.62;8.40;;;;;;;20.42;57.38;100316.50;4372258;32;34980;-72
2023/10/11 10:28:42;;;;;;;16.98;8.82;;;;;;;20.53;56.67;100307.22;4369445;32;34545;-72
2023/10/11 10:31:13;;;;;;;25.85;10.52;;;;;;;20.82;56.41;100312.22;4368720;32;33489;-72
2023/10/11 10:33:42;;;;;;;19.77;10.73;;;;;;;21.12;55.80;100300.69;4376666;32;33923;-73
2023/10/11 10:36:21;;;;;;;22.62;11.57;;;;;;;21.14;55.55;100295.06;4379109;32;33847;-72
2023/10/11 10:41:38;;;;;;;13.25;8.32;;;;;;;21.02;56.08;100299.13;4372399;32;33491;-72
2023/10/11 10:44:11;;;;;;;10.90;6.12;;;;;;;21.23;56.17;100296.78;4381035;32;33789;-71
2023/10/11 10:46:54;;;;;;;12.88;6.15;;;;;;;20.77;56.70;100292.81;4376362;32;33799;-71
2023/10/11 10:49:41;;;;;;;13.45;7.87;;;;;;;20.79;56.50;100285.34;4363305;32;33585;-71
2023/10/11 10:52:16;;;;;;;13.48;6.80;;;;;;;21.33;55.16;100277.53;4378866;32;33291;-71
2023/10/11 10:55:03;;;;;;;13.48;8.05;;;;;;;21.31;55.62;100282.28;4374819;32;34637;-71
2023/10/11 10:57:36;;;;;;;10.23;5.45;;;;;;;21.69;54.18;100271.72;4358908;32;35054;-72
2023/10/11 11:00:23;;;;;;;12.15;5.80;;;;;;;21.30;55.04;100272.44;4374222;32;33537;-71
2023/10/11 11:02:52;;;;;;;10.88;5.18;;;;;;;21.53;54.58;100268.00;4323532;33;33631;-70
2023/10/11 11:05:25;;;;;;;10.00;6.72;;;;;;;21.53;55.48;100265.28;4328863;33;33619;-72
2023/10/11 11:08:24;;;;;;;8.20;4.68;;;;;;;22.13;53.97;100258.47;4329507;33;34542;-70
2023/10/11 11:10:57;;;;;;;15.68;7.12;;;;;;;21.76;54.97;100257.22;4329479;33;33402;-69
2023/10/11 11:13:28;;;;;;;11.35;4.90;;;;;;;21.61;55.07;100251.66;4324236;33;33805;-69
2023/10/11 11:15:56;;;;;;;9.70;3.72;;;;;;;22.24;53.75;100249.06;4331287;33;34678;-68
2023/10/11 11:18:33;;;;;;;6.37;3.58;;;;;;;22.49;52.76;100237.00;4325617;33;33861;-69
2023/10/11 11:21:20;;;;;;;8.55;4.72;;;;;;;22.78;51.72;100240.91;4324634;33;33973;-70
2023/10/11 11:23:51;;;;;;;7.05;4.07;;;;;;;22.01;53.81;100244.37;4321028;33;33502;-69
2023/10/11 11:26:23;;;;;;;11.98;5.25;;;;;;;22.29;51.62;100239.34;4323715;33;33854;-68
2023/10/11 11:29:08;;;;;;;7.87;4.23;;;;;;;22.17;53.04;100238.03;4323236;33;33961;-69
2023/10/11 11:31:59;;;;;;;12.00;5.68;;;;;;;22.70;52.12;100236.34;4332341;33;35316;-71
2023/10/11 11:34:27;;;;;;;12.55;6.45;;;;;;;22.58;51.32;100228.78;4357355;32;34450;-67
2023/10/11 11:36:57;;;;;;;10.73;5.60;;;;;;;22.30;51.70;100219.22;4374868;32;33641;-68
2023/10/11 11:39:36;;;;;;;8.30;4.93;;;;;;;23.12;50.32;100215.06;4376776;32;34091;-68
2023/10/11 11:42:09;;;;;;;7.43;3.97;;;;;;;22.47;51.46;100213.66;4373285;32;33942;-69
2023/10/11 11:44:36;;;;;;;12.50;6.30;;;;;;;22.66;51.33;100206.87;4378695;32;33149;-69
2023/10/11 11:47:05;;;;;;;8.95;5.18;;;;;;;22.75;50.41;100203.91;4379173;32;34567;-70
2023/10/11 11:49:33;;;;;;;13.32;6.70;;;;;;;23.01;50.47;100203.53;4377362;32;35457;-69
2023/10/11 11:52:01;;;;;;;10.27;5.15;;;;;;;22.73;51.44;100200.53;4375881;32;33628;-70
2023/10/11 11:54:29;;;;;;;10.90;6.57;;;;;;;23.14;50.06;100191.16;4375757;32;34713;-70
2023/10/11 11:56:57;;;;;;;10.63;6.45;;;;;;;23.12;50.31;100193.22;4379184;32;35148;-69
2023/10/11 11:59:29;;;;;;;5.95;3.53;;;;;;;23.39;50.16;100186.28;4371762;32;34993;-68
2023/10/11 12:01:59;;;;;;;11.50;7.30;;;;;;;23.12;51.12;100198.69;4366530;32;33003;-69
2023/10/11 12:04:32;;;;;;;8.00;3.62;;;;;;;23.33;49.23;100187.88;4358742;32;33654;-71
2023/10/11 12:07:02;;;;;;;11.40;4.35;;;;;;;23.10;50.42;100187.94;4366421;32;33659;-69
2023/10/11 12:09:32;;;;;;;12.23;4.72;;;;;;;23.23;49.68;100185.41;4341103;32;33568;-69
2023/10/11 12:12:18;;;;;;;10.05;5.32;;;;;;;23.10;49.85;100184.38;4341634;32;34108;-70
2023/10/11 12:14:49;;;;;;;9.40;3.53;;;;;;;23.35;49.71;100179.50;4342118;32;33332;-70
2023/10/11 12:17:17;;;;;;;8.32;2.83;;;;;;;22.89;50.62;100179.56;4340793;32;33922;-70
2023/10/11 12:19:44;;;;;;;6.28;2.55;;;;;;;22.81;47.97;100182.38;4340978;32;33773;-70
2023/10/11 12:22:14;;;;;;;11.68;3.17;;;;;;;22.63;47.69;100179.94;4340764;32;32582;-71
2023/10/11 12:24:45;;;;;;;9.38;2.75;;;;;;;23.09;46.22;100182.69;4337465;32;34039;-72
2023/10/11 12:27:13;;;;;;;7.80;3.40;;;;;;;22.84;47.10;100174.66;4338938;32;33619;-71
2023/10/11 12:29:43;;;;;;;6.80;2.90;;;;;;;23.08;46.44;100180.97;4337951;32;32346;-71
2023/10/11 12:32:33;;;;;;;8.07;3.62;;;;;;;23.10;46.79;100173.44;4338757;32;34342;-70
2023/10/11 12:35:05;;;;;;;5.50;2.65;;;;;;;23.22;46.83;100177.44;4335454;32;32810;-70
2023/10/11 12:37:33;;;;;;;12.50;4.62;;;;;;;23.35;46.41;100169.44;4341899;32;34545;-70